Bellingham International Airport Bellingham US
ICAO: KBLI
IATA: BLI
Category: Medium
Scheduled Services: Yes

Elevation: 170 ft
TransAlt. 18000 ft.

Airport Communications:
VICTORIA APP/DEP:132.7
ATIS:134.45
CTAF:124.9
GND:127.4
SEATTLE RDO:122.15
TWR:124.9
UNICOM:122.95

KBLI Zoom In..

If you have problems with the map follow the link
https://www.worldairports.se/pages/airport.php?
ICAO=KBLI

Runways:

(A) RW 16 length 6701 ft width 150 ft
ILS 108.50 / hdg 160

(B) RW 34 length 6701 ft width 150 ft
---- / hdg 340

Location; KBLI
Day. 19 / Time. 01.53 Zulu
* Altimeter: 30.19
* Temperature: 02° c. 35.6°f.
* Wind from: 010° Speed 03 kn.
Dewpoint: -01° c.
Visibility: 10 Statute Miles.
Clouds: Broken 3000 ft.

KBLI 190153Z 01003KT 10SM BKN030 02/M01 A3019 RMK AO2 SLP233 T00171011


Wind From 010°
Speed 03 kn.

 
 
jpsmedia worldairports.se 2020   terms of use